Time;durP1;ratioP1;P1;durP2;ratioP2;P2;SDS_P1;SDS_P2;PMS_P1;PMS_P2;Temp;Humidity;BMP_temperature;BMP_pressure;BME280_temperature;BME280_humidity;BME280_pressure;Samples;Min_cycle;Max_cycle;Signal;HPM_P1;HPM_P2
2023/06/13 00:03:37;;;;;;;12.55;7.25;;;;;20.90;100751.00;;;;10173780;28;20310;-77
2023/06/13 00:08:41;;;;;;;10.10;7.18;;;;;20.80;100754.00;;;;10181652;28;20272;-77
2023/06/13 00:13:45;;;;;;;7.85;6.90;;;;;20.70;100748.00;;;;10185569;28;20694;-77
2023/06/13 00:18:47;;;;;;;9.60;7.65;;;;;20.60;100751.00;;;;10186212;28;20217;-77
2023/06/13 00:23:49;;;;;;;7.20;6.57;;;;;20.50;100752.00;;;;10164519;28;20220;-76
2023/06/13 00:28:52;;;;;;;8.25;6.95;;;;;20.40;100744.00;;;;10167654;28;20243;-76
2023/06/13 00:33:59;;;;;;;9.43;7.30;;;;;20.30;100747.00;;;;10180706;28;20271;-77
2023/06/13 00:39:02;;;;;;;9.57;7.10;;;;;20.10;100741.00;;;;10192562;28;20244;-77
2023/06/13 00:44:06;;;;;;;8.00;6.80;;;;;20.00;100745.00;;;;10174846;28;20216;-77
2023/06/13 00:49:08;;;;;;;8.70;7.22;;;;;19.90;100740.00;;;;10187969;28;20243;-77
2023/06/13 00:54:13;;;;;;;11.30;7.00;;;;;19.80;100741.00;;;;10187880;28;21417;-77
2023/06/13 00:59:17;;;;;;;8.07;7.28;;;;;19.70;100732.00;;;;10180257;28;21359;-76
2023/06/13 01:04:19;;;;;;;10.10;7.32;;;;;19.50;100732.00;;;;10173480;28;20904;-76
2023/06/13 01:09:22;;;;;;;10.77;7.53;;;;;19.40;100729.00;;;;10173719;28;21899;-75
2023/06/13 01:14:30;;;;;;;7.68;6.97;;;;;19.30;100725.00;;;;10168688;28;20249;-75
2023/06/13 01:19:41;;;;;;;13.35;7.20;;;;;19.20;100724.00;;;;10175365;28;20267;-75
2023/06/13 01:25:08;;;;;;;10.38;7.45;;;;;19.10;100717.00;;;;10174923;28;20406;-75
2023/06/13 01:30:11;;;;;;;9.52;7.22;;;;;19.00;100718.00;;;;10176402;28;20783;-75
2023/06/13 01:35:14;;;;;;;8.20;7.40;;;;;19.00;100722.00;;;;10176801;28;20706;-76
2023/06/13 01:40:20;;;;;;;9.70;7.15;;;;;18.90;100730.00;;;;10175688;28;20795;-75
2023/06/13 01:45:24;;;;;;;8.05;7.22;;;;;18.70;100726.00;;;;10174051;28;21917;-75
2023/06/13 01:50:33;;;;;;;10.25;7.53;;;;;18.60;100728.00;;;;10175000;28;20328;-75
2023/06/13 01:55:46;;;;;;;7.90;7.10;;;;;18.60;100725.00;;;;10176751;28;20796;-76
2023/06/13 02:00:55;;;;;;;13.50;7.05;;;;;18.50;100728.00;;;;10174273;28;20900;-76
2023/06/13 02:05:58;;;;;;;8.32;6.95;;;;;18.40;100724.00;;;;10174583;28;21944;-76
2023/06/13 02:11:00;;;;;;;8.18;7.30;;;;;18.30;100729.00;;;;10174155;28;20229;-75
2023/06/13 02:16:05;;;;;;;10.20;7.00;;;;;18.20;100733.00;;;;10171974;28;20954;-75
2023/06/13 02:21:08;;;;;;;11.55;8.05;;;;;18.00;100735.00;;;;10175200;28;20777;-75
2023/06/13 02:26:11;;;;;;;8.18;6.68;;;;;17.90;100727.00;;;;10173365;28;20215;-76
2023/06/13 02:31:13;;;;;;;12.02;8.00;;;;;17.80;100719.00;;;;10163045;28;20216;-75
2023/06/13 02:36:15;;;;;;;9.17;7.23;;;;;17.70;100728.00;;;;10175567;28;20210;-77
2023/06/13 02:41:17;;;;;;;12.32;7.85;;;;;17.60;100715.00;;;;10181460;28;20271;-76
2023/06/13 02:46:19;;;;;;;10.07;7.95;;;;;17.50;100720.00;;;;10163480;28;20212;-76
2023/06/13 02:51:22;;;;;;;9.13;7.72;;;;;17.40;100711.00;;;;10177121;28;20674;-74
2023/06/13 02:56:26;;;;;;;8.32;7.40;;;;;17.40;100707.00;;;;10144686;28;20228;-76
2023/06/13 03:01:29;;;;;;;10.82;7.15;;;;;17.30;100715.00;;;;10161401;28;21674;-76
2023/06/13 03:06:41;;;;;;;7.22;6.53;;;;;17.30;100711.00;;;;10178036;28;20201;-75
2023/06/13 03:11:46;;;;;;;9.13;7.70;;;;;17.30;100714.00;;;;10183254;28;20950;-78
2023/06/13 03:16:48;;;;;;;12.20;7.15;;;;;17.20;100717.00;;;;10176581;28;20642;-75
2023/06/13 03:21:50;;;;;;;9.80;7.20;;;;;17.20;100729.00;;;;10143315;28;20280;-76
2023/06/13 03:26:53;;;;;;;9.15;7.95;;;;;17.10;100728.00;;;;10171476;28;20236;-75
2023/06/13 03:31:55;;;;;;;7.95;7.15;;;;;17.00;100718.00;;;;10172810;28;20229;-75
2023/06/13 03:37:03;;;;;;;10.73;7.93;;;;;16.90;100723.00;;;;10177584;28;20213;-77
2023/06/13 03:42:07;;;;;;;11.43;7.50;;;;;16.80;100727.00;;;;10177256;28;21847;-77
2023/06/13 03:47:09;;;;;;;10.10;8.00;;;;;16.80;100732.00;;;;10192540;28;20223;-77
2023/06/13 03:52:11;;;;;;;9.38;7.75;;;;;16.70;100732.00;;;;10191350;28;20271;-78
2023/06/13 03:57:14;;;;;;;8.90;7.25;;;;;16.90;100733.00;;;;10193780;28;20552;-77
2023/06/13 04:02:19;;;;;;;10.07;7.22;;;;;17.00;100746.00;;;;10192497;28;20300;-77
2023/06/13 04:07:23;;;;;;;9.57;7.53;;;;;17.30;100741.00;;;;10196271;28;20208;-77
2023/06/13 04:12:25;;;;;;;11.93;7.45;;;;;17.50;100748.00;;;;10177174;28;20358;-78
2023/06/13 04:17:29;;;;;;;6.85;6.15;;;;;17.60;100736.00;;;;10178359;28;20319;-77
2023/06/13 04:22:31;;;;;;;11.27;7.13;;;;;17.70;100743.00;;;;10186601;28;20219;-75
2023/06/13 04:27:34;;;;;;;14.63;8.32;;;;;17.80;100743.00;;;;10171930;28;21048;-76
2023/06/13 04:32:37;;;;;;;8.30;7.40;;;;;17.90;100743.00;;;;10178202;28;20259;-78
2023/06/13 04:37:40;;;;;;;8.30;7.00;;;;;17.90;100753.00;;;;10195166;28;20521;-77
2023/06/13 04:42:47;;;;;;;9.30;8.32;;;;;18.00;100751.00;;;;10178923;28;20233;-76
2023/06/13 04:47:51;;;;;;;9.52;7.47;;;;;18.10;100756.00;;;;10180133;28;20213;-77
2023/06/13 04:52:58;;;;;;;9.50;7.32;;;;;18.20;100766.00;;;;10174386;28;20232;-77
2023/06/13 04:58:01;;;;;;;8.18;7.38;;;;;18.30;100765.00;;;;10183719;28;20267;-75
2023/06/13 05:03:03;;;;;;;8.65;7.72;;;;;18.60;100765.00;;;;10181200;28;21735;-76
2023/06/13 05:08:06;;;;;;;12.02;7.70;;;;;19.00;100785.00;;;;10182012;28;20603;-75
2023/06/13 05:13:08;;;;;;;13.20;7.80;;;;;19.40;100787.00;;;;10168060;28;21674;-74
2023/06/13 05:18:14;;;;;;;13.43;7.95;;;;;19.80;100776.00;;;;10159898;28;20209;-75
2023/06/13 05:23:16;;;;;;;10.73;7.68;;;;;20.20;100780.00;;;;10173894;28;20253;-77
2023/06/13 05:28:19;;;;;;;11.68;7.57;;;;;20.50;100798.00;;;;10171929;28;20914;-76
2023/06/13 05:33:22;;;;;;;8.15;7.28;;;;;20.80;100803.00;;;;10170854;28;20240;-75
2023/06/13 05:38:24;;;;;;;7.97;6.97;;;;;21.30;100802.00;;;;10179677;28;20268;-74
2023/06/13 05:43:27;;;;;;;10.15;6.72;;;;;21.60;100807.00;;;;10178492;28;20228;-75
2023/06/13 05:48:29;;;;;;;9.20;7.40;;;;;21.90;100804.00;;;;10176603;28;20224;-78
2023/06/13 05:53:31;;;;;;;8.32;6.80;;;;;22.20;100803.00;;;;10176381;28;20675;-79
2023/06/13 05:58:34;;;;;;;11.93;7.70;;;;;22.40;100808.00;;;;10177968;28;20221;-76
2023/06/13 06:03:37;;;;;;;7.35;6.65;;;;;22.60;100801.00;;;;10181330;28;20900;-77
2023/06/13 06:08:39;;;;;;;7.63;6.70;;;;;23.00;100813.00;;;;10186913;28;20309;-76
2023/06/13 06:13:41;;;;;;;13.20;6.95;;;;;23.30;100813.00;;;;10184818;28;20229;-77
2023/06/13 06:18:43;;;;;;;9.27;7.30;;;;;23.80;100809.00;;;;10183907;28;20209;-77
2023/06/13 06:23:45;;;;;;;7.55;6.43;;;;;24.20;100804.00;;;;10185129;28;20255;-78
2023/06/13 06:28:47;;;;;;;9.43;6.18;;;;;24.40;100814.00;;;;10163905;28;20319;-76
2023/06/13 06:33:50;;;;;;;14.55;5.88;;;;;24.60;100808.00;;;;10179896;28;20402;-77
2023/06/13 06:38:52;;;;;;;8.27;5.70;;;;;24.90;100812.00;;;;10183004;28;20404;-77
2023/06/13 06:43:54;;;;;;;11.82;5.65;;;;;25.10;100800.00;;;;10164504;28;20225;-75
2023/06/13 06:48:59;;;;;;;10.50;5.65;;;;;25.40;100800.00;;;;10170148;28;20220;-77
2023/06/13 06:54:01;;;;;;;9.15;5.40;;;;;25.50;100810.00;;;;10182373;28;20233;-77
2023/06/13 06:59:03;;;;;;;7.35;5.50;;;;;25.70;100808.00;;;;10178791;28;20221;-74
2023/06/13 07:04:05;;;;;;;8.68;5.50;;;;;26.10;100798.00;;;;10162819;28;20568;-76
2023/06/13 07:09:09;;;;;;;8.68;5.07;;;;;26.50;100801.00;;;;10168476;28;20222;-75
2023/06/13 07:14:11;;;;;;;9.05;5.68;;;;;27.10;100804.00;;;;10174944;28;21039;-76
2023/06/13 07:19:13;;;;;;;8.90;5.50;;;;;27.60;100806.00;;;;10181923;28;20610;-77
2023/06/13 07:24:15;;;;;;;8.90;5.65;;;;;27.80;100801.00;;;;10182351;28;20295;-76
2023/06/13 07:29:17;;;;;;;7.68;5.45;;;;;27.90;100811.00;;;;10174666;28;20284;-75
2023/06/13 07:34:20;;;;;;;6.18;5.57;;;;;28.30;100802.00;;;;10182324;28;20224;-77
2023/06/13 07:39:42;;;;;;;6.70;4.90;;;;;28.60;100802.00;;;;10184664;28;20271;-77
2023/06/13 07:44:44;;;;;;;8.43;5.38;;;;;29.20;100797.00;;;;10186354;28;20340;-77
2023/06/13 07:49:47;;;;;;;9.02;4.90;;;;;29.40;100802.00;;;;10180140;28;20323;-75
2023/06/13 07:54:49;;;;;;;7.10;4.55;;;;;29.80;100793.00;;;;10162936;28;20226;-75
2023/06/13 07:59:55;;;;;;;6.60;5.13;;;;;30.30;100800.00;;;;10162246;28;20209;-76
2023/06/13 08:04:57;;;;;;;7.68;4.43;;;;;30.50;100787.00;;;;10159001;28;20292;-76
2023/06/13 08:09:59;;;;;;;7.30;5.43;;;;;31.10;100793.00;;;;10156669;28;20231;-77
2023/06/13 08:15:03;;;;;;;7.47;4.50;;;;;31.20;100791.00;;;;10168133;28;20224;-76
2023/06/13 08:20:06;;;;;;;9.45;4.90;;;;;31.10;100789.00;;;;10171202;28;20255;-76
2023/06/13 08:25:09;;;;;;;7.63;5.10;;;;;31.60;100792.00;;;;10173214;28;20646;-76
2023/06/13 08:30:11;;;;;;;5.32;4.43;;;;;32.20;100798.00;;;;10179806;28;20216;-75
2023/06/13 08:35:15;;;;;;;7.50;5.18;;;;;32.60;100796.00;;;;10179838;28;20846;-77
2023/06/13 08:40:19;;;;;;;6.60;4.93;;;;;32.70;100796.00;;;;10176005;28;22405;-79
2023/06/13 08:45:21;;;;;;;9.48;4.80;;;;;32.70;100791.00;;;;10185759;28;20213;-77
2023/06/13 08:50:26;;;;;;;8.60;5.05;;;;;33.00;100801.00;;;;10189204;28;20240;-77
2023/06/13 08:55:32;;;;;;;6.93;4.80;;;;;33.30;100797.00;;;;10189859;28;20221;-77
2023/06/13 09:00:57;;;;;;;5.70;4.70;;;;;33.30;100795.00;;;;10189054;28;20701;-77
2023/06/13 09:06:00;;;;;;;7.00;4.57;;;;;33.40;100794.00;;;;10167425;28;20231;-75
2023/06/13 09:11:02;;;;;;;6.85;5.03;;;;;33.70;100789.00;;;;10166077;28;20821;-76
2023/06/13 09:16:04;;;;;;;9.30;5.25;;;;;33.90;100792.00;;;;10167961;28;20213;-78
2023/06/13 09:21:06;;;;;;;10.40;5.07;;;;;34.10;100785.00;;;;10184270;28;20205;-77
2023/06/13 09:26:09;;;;;;;11.45;5.38;;;;;34.10;100784.00;;;;10183939;28;20216;-78
2023/06/13 09:31:11;;;;;;;5.13;4.63;;;;;34.20;100787.00;;;;10183213;28;20252;-76
2023/06/13 09:36:13;;;;;;;8.25;4.70;;;;;34.40;100770.00;;;;10175913;28;20205;-76
2023/06/13 09:41:19;;;;;;;5.65;4.63;;;;;34.60;100776.00;;;;10184784;28;20257;-77
2023/06/13 09:46:23;;;;;;;7.82;4.63;;;;;34.70;100765.00;;;;10185474;28;21561;-76
2023/06/13 09:51:29;;;;;;;5.45;4.63;;;;;35.10;100772.00;;;;10173565;28;20217;-76
2023/06/13 09:56:31;;;;;;;7.68;5.13;;;;;35.40;100769.00;;;;10180706;28;20217;-77
2023/06/13 10:01:34;;;;;;;8.30;5.50;;;;;35.20;100772.00;;;;10183556;28;20220;-77
2023/06/13 10:06:37;;;;;;;6.53;5.18;;;;;35.30;100761.00;;;;10163084;28;20233;-75
2023/06/13 10:11:43;;;;;;;6.93;5.20;;;;;35.30;100762.00;;;;10177239;28;20761;-78
2023/06/13 10:16:56;;;;;;;5.85;4.60;;;;;35.40;100761.00;;;;10176812;28;21851;-77
2023/06/13 10:22:11;;;;;;;5.32;4.82;;;;;35.40;100756.00;;;;10163977;28;20304;-77
2023/06/13 10:27:17;;;;;;;6.50;4.65;;;;;35.50;100760.00;;;;10164835;28;21469;-77
2023/06/13 10:32:35;;;;;;;8.18;4.85;;;;;36.00;100755.00;;;;10166493;28;20221;-78
2023/06/13 10:37:43;;;;;;;7.50;5.03;;;;;36.30;100758.00;;;;10182625;28;20553;-78
2023/06/13 10:42:55;;;;;;;9.30;5.22;;;;;36.40;100748.00;;;;10172010;28;20256;-75
2023/06/13 10:48:05;;;;;;;8.13;4.70;;;;;36.70;100746.00;;;;10155166;28;20206;-77
2023/06/13 10:53:34;;;;;;;12.35;4.70;;;;;37.20;100751.00;;;;10173683;28;20213;-78
2023/06/13 10:58:36;;;;;;;5.20;4.57;;;;;36.90;100748.00;;;;10172915;28;20971;-78
2023/06/13 11:03:42;;;;;;;12.15;4.40;;;;;37.10;100743.00;;;;10181915;28;20263;-78
2023/06/13 11:08:44;;;;;;;5.68;4.30;;;;;37.10;100738.00;;;;10167016;28;20205;-76
2023/06/13 11:13:46;;;;;;;5.78;4.03;;;;;37.10;100732.00;;;;10170047;28;20556;-76
2023/06/13 11:18:48;;;;;;;6.15;4.57;;;;;37.10;100738.00;;;;10168906;28;20232;-76
2023/06/13 11:23:54;;;;;;;6.35;4.50;;;;;37.20;100732.00;;;;10171387;28;20267;-77
2023/06/13 11:28:58;;;;;;;5.18;4.28;;;;;37.70;100722.00;;;;10163167;28;20237;-77
2023/06/13 11:34:03;;;;;;;6.20;4.43;;;;;37.70;100729.00;;;;10177939;28;20213;-77
2023/06/13 11:39:10;;;;;;;3.85;3.55;;;;;38.10;100725.00;;;;10164141;28;20896;-77
2023/06/13 11:44:12;;;;;;;5.30;4.80;;;;;38.40;100722.00;;;;10171682;28;20232;-76
2023/06/13 11:49:15;;;;;;;5.03;4.57;;;;;37.80;100722.00;;;;10177087;28;20216;-77
2023/06/13 11:54:17;;;;;;;5.78;4.53;;;;;37.80;100722.00;;;;10176370;28;20971;-77
2023/06/13 11:59:21;;;;;;;7.88;4.85;;;;;37.70;100712.00;;;;10170852;28;20220;-76
2023/06/13 12:04:26;;;;;;;6.30;4.63;;;;;38.30;100713.00;;;;10167765;28;20225;-76
2023/06/13 12:09:28;;;;;;;6.53;4.60;;;;;38.80;100705.00;;;;10162680;28;20227;-75
2023/06/13 12:14:31;;;;;;;8.90;4.50;;;;;38.60;100714.00;;;;10166429;28;20224;-75
2023/06/13 12:19:33;;;;;;;6.65;5.00;;;;;38.30;100714.00;;;;10201964;28;20213;-74
2023/06/13 12:24:35;;;;;;;5.72;4.43;;;;;38.50;100714.00;;;;10207885;28;20228;-75
2023/06/13 12:29:39;;;;;;;4.93;4.50;;;;;38.40;100712.00;;;;10203474;28;20221;-76
2023/06/13 12:34:45;;;;;;;5.18;4.75;;;;;38.20;100708.00;;;;10204016;28;20282;-77
2023/06/13 12:40:06;;;;;;;6.57;4.85;;;;;38.10;100707.00;;;;10198563;28;20224;-77
2023/06/13 12:45:14;;;;;;;6.53;4.80;;;;;37.80;100701.00;;;;10198026;28;20272;-77
2023/06/13 12:50:18;;;;;;;7.50;5.47;;;;;37.30;100692.00;;;;10197984;28;20301;-76
2023/06/13 12:55:24;;;;;;;7.90;4.80;;;;;37.20;100695.00;;;;10197201;28;20259;-75
2023/06/13 13:00:26;;;;;;;5.78;4.55;;;;;36.80;100680.00;;;;10176906;28;20214;-76
2023/06/13 13:05:29;;;;;;;5.95;4.47;;;;;36.80;100687.00;;;;10167368;28;21238;-76
2023/06/13 13:10:31;;;;;;;5.07;4.68;;;;;36.60;100690.00;;;;10186237;28;20213;-76
2023/06/13 13:15:33;;;;;;;7.22;4.88;;;;;36.70;100686.00;;;;10187690;28;20209;-75
2023/06/13 13:20:36;;;;;;;7.72;4.80;;;;;37.20;100682.00;;;;10182619;28;20202;-76
2023/06/13 13:25:38;;;;;;;5.20;4.70;;;;;37.40;100676.00;;;;10183149;28;20255;-77
2023/06/13 13:30:41;;;;;;;6.72;4.70;;;;;37.20;100686.00;;;;10176128;28;20221;-77
2023/06/13 13:36:02;;;;;;;8.57;4.63;;;;;37.00;100688.00;;;;10184651;28;20209;-76
2023/06/13 13:41:04;;;;;;;7.22;4.70;;;;;37.00;100677.00;;;;10179052;28;20352;-76
2023/06/13 13:46:06;;;;;;;5.88;4.43;;;;;37.10;100670.00;;;;10173514;28;20299;-76
2023/06/13 13:51:08;;;;;;;9.60;4.45;;;;;36.70;100663.00;;;;10171875;28;20295;-77
2023/06/13 13:56:10;;;;;;;4.70;4.30;;;;;36.20;100665.00;;;;10180840;28;20266;-78
2023/06/13 14:01:13;;;;;;;5.30;4.20;;;;;36.20;100673.00;;;;10171785;28;20229;-76
2023/06/13 14:06:15;;;;;;;6.47;4.97;;;;;36.10;100674.00;;;;10168408;28;20897;-75
2023/06/13 14:11:17;;;;;;;4.95;4.07;;;;;35.90;100669.00;;;;10168203;28;20831;-78
2023/06/13 14:16:21;;;;;;;8.15;4.60;;;;;35.90;100653.00;;;;10174903;28;22305;-76
2023/06/13 14:21:24;;;;;;;5.78;4.15;;;;;35.90;100655.00;;;;10160282;28;20573;-76
2023/06/13 14:26:27;;;;;;;5.45;4.22;;;;;35.60;100656.00;;;;10157928;28;20209;-76
2023/06/13 14:31:29;;;;;;;5.90;4.38;;;;;35.30;100656.00;;;;10168384;28;20204;-76
2023/06/13 14:36:31;;;;;;;4.72;4.22;;;;;35.30;100650.00;;;;10170915;28;20216;-77
2023/06/13 14:41:33;;;;;;;6.32;4.05;;;;;35.50;100659.00;;;;10167857;28;20229;-77
2023/06/13 14:46:35;;;;;;;5.78;4.20;;;;;35.70;100655.00;;;;10173653;28;21306;-76
2023/06/13 14:51:38;;;;;;;5.40;4.32;;;;;36.10;100646.00;;;;10171894;28;20322;-77
2023/06/13 14:56:40;;;;;;;4.30;3.88;;;;;36.60;100646.00;;;;10183888;28;21904;-75
2023/06/13 15:01:42;;;;;;;3.97;3.60;;;;;37.50;100642.00;;;;10184052;28;20253;-76
2023/06/13 15:06:44;;;;;;;6.15;4.10;;;;;38.00;100631.00;;;;10186978;28;21802;-76
2023/06/13 15:11:47;;;;;;;6.38;4.55;;;;;38.80;100641.00;;;;10187395;28;20237;-76
2023/06/13 15:16:49;;;;;;;6.63;4.25;;;;;39.50;100638.00;;;;10188053;28;20283;-79
2023/06/13 15:21:51;;;;;;;7.22;4.00;;;;;40.10;100631.00;;;;10192898;28;20228;-79
2023/06/13 15:26:53;;;;;;;5.35;3.72;;;;;40.50;100629.00;;;;10193350;28;20414;-78
2023/06/13 15:31:57;;;;;;;4.38;3.97;;;;;40.60;100634.00;;;;10188184;28;21599;-78
2023/06/13 15:37:00;;;;;;;5.85;4.13;;;;;37.20;100654.00;;;;10190847;28;20213;-78
2023/06/13 15:42:03;;;;;;;6.50;4.70;;;;;35.50;100645.00;;;;10175310;28;20980;-78
2023/06/13 15:47:05;;;;;;;5.55;3.95;;;;;34.80;100650.00;;;;10179489;28;20208;-77
2023/06/13 15:52:08;;;;;;;6.30;4.63;;;;;34.00;100641.00;;;;10171092;28;20772;-75
2023/06/13 15:57:10;;;;;;;4.22;3.83;;;;;32.40;100636.00;;;;10159264;28;21414;-77
2023/06/13 16:02:13;;;;;;;8.35;4.20;;;;;31.80;100632.00;;;;10166223;28;20244;-75
2023/06/13 16:07:15;;;;;;;6.70;4.60;;;;;31.40;100640.00;;;;10160075;28;20236;-77
2023/06/13 16:12:17;;;;;;;4.30;3.90;;;;;31.00;100633.00;;;;10161369;28;20550;-77
2023/06/13 16:17:19;;;;;;;5.53;4.20;;;;;30.60;100630.00;;;;10166067;28;20741;-76
2023/06/13 16:22:22;;;;;;;9.80;4.18;;;;;30.40;100632.00;;;;10167915;28;20332;-76
2023/06/13 16:27:24;;;;;;;11.13;4.78;;;;;30.30;100626.00;;;;10185323;28;20205;-77
2023/06/13 16:32:26;;;;;;;6.20;4.07;;;;;30.10;100626.00;;;;10178107;28;22452;-76
2023/06/13 16:37:28;;;;;;;5.32;4.82;;;;;30.00;100626.00;;;;10170683;28;20244;-76
2023/06/13 16:42:30;;;;;;;5.65;4.55;;;;;30.00;100622.00;;;;10171495;28;20253;-77
2023/06/13 16:47:32;;;;;;;8.32;4.45;;;;;29.90;100624.00;;;;10186174;28;20209;-77
2023/06/13 16:52:35;;;;;;;6.45;4.53;;;;;29.70;100623.00;;;;10183584;28;20248;-77
2023/06/13 16:57:37;;;;;;;6.75;4.90;;;;;29.60;100623.00;;;;10166946;28;20403;-77
2023/06/13 17:02:39;;;;;;;7.50;4.90;;;;;29.40;100620.00;;;;10176200;28;20230;-78
2023/06/13 17:07:42;;;;;;;5.78;4.13;;;;;29.30;100616.00;;;;10182530;28;20214;-78
2023/06/13 17:12:44;;;;;;;7.03;4.53;;;;;29.30;100627.00;;;;10187444;28;20485;-78
2023/06/13 17:17:46;;;;;;;7.50;4.38;;;;;29.10;100631.00;;;;10179317;28;20217;-77
2023/06/13 17:22:48;;;;;;;5.88;5.28;;;;;29.00;100630.00;;;;10176797;28;21044;-75
2023/06/13 17:27:50;;;;;;;6.80;4.65;;;;;28.80;100638.00;;;;10175068;28;20691;-76
2023/06/13 17:32:53;;;;;;;5.80;4.85;;;;;28.80;100634.00;;;;10177972;28;20291;-77
2023/06/13 17:37:55;;;;;;;5.47;4.90;;;;;28.70;100632.00;;;;10176862;28;20217;-75
2023/06/13 17:42:57;;;;;;;5.68;4.82;;;;;28.50;100631.00;;;;10179246;28;20225;-78
2023/06/13 17:47:59;;;;;;;9.40;4.70;;;;;28.40;100632.00;;;;10182380;28;20208;-79
2023/06/13 17:53:01;;;;;;;7.93;5.10;;;;;28.40;100629.00;;;;10183136;28;20248;-78
2023/06/13 17:58:03;;;;;;;7.72;5.32;;;;;28.30;100627.00;;;;10179557;28;21349;-75
2023/06/13 18:03:05;;;;;;;7.07;5.05;;;;;28.20;100639.00;;;;10179083;28;21583;-75
2023/06/13 18:08:08;;;;;;;5.68;5.10;;;;;28.10;100635.00;;;;10178652;28;20205;-77
2023/06/13 18:13:10;;;;;;;8.52;5.30;;;;;27.90;100639.00;;;;10178373;28;20208;-75
2023/06/13 18:18:12;;;;;;;6.93;5.28;;;;;27.80;100634.00;;;;10175174;28;20221;-75
2023/06/13 18:23:15;;;;;;;5.38;4.88;;;;;27.60;100643.00;;;;10175342;28;20267;-77
2023/06/13 18:28:17;;;;;;;5.38;4.88;;;;;27.50;100650.00;;;;10167887;28;20375;-76
2023/06/13 18:33:18;;;;;;;9.73;4.70;;;;;27.50;100652.00;;;;10165841;28;20248;-75
2023/06/13 18:38:22;;;;;;;5.63;4.45;;;;;27.30;100655.00;;;;10183488;28;20218;-76
2023/06/13 18:43:25;;;;;;;8.57;4.90;;;;;27.10;100656.00;;;;10190007;28;20597;-74
2023/06/13 18:48:27;;;;;;;7.00;5.00;;;;;26.90;100655.00;;;;10194630;28;20244;-77
2023/06/13 18:53:29;;;;;;;6.97;4.93;;;;;26.80;100660.00;;;;10188344;28;20228;-74
2023/06/13 18:58:31;;;;;;;6.30;5.03;;;;;26.70;100657.00;;;;10186854;28;20217;-75
2023/06/13 19:03:34;;;;;;;8.57;4.75;;;;;26.50;100655.00;;;;10184563;28;20637;-75
2023/06/13 19:08:36;;;;;;;5.50;5.00;;;;;26.40;100659.00;;;;10185595;28;20244;-76
2023/06/13 19:13:38;;;;;;;7.63;5.03;;;;;26.20;100663.00;;;;10186724;28;21717;-75
2023/06/13 19:18:40;;;;;;;5.80;4.70;;;;;26.20;100670.00;;;;10184318;28;20217;-75
2023/06/13 19:23:42;;;;;;;10.02;4.93;;;;;26.00;100675.00;;;;10182621;28;20755;-76
2023/06/13 19:28:48;;;;;;;7.13;5.03;;;;;25.80;100684.00;;;;10181760;28;20683;-75
2023/06/13 19:33:50;;;;;;;7.63;4.75;;;;;25.50;100693.00;;;;10178605;28;21296;-75
2023/06/13 19:38:52;;;;;;;7.85;5.18;;;;;25.20;100685.00;;;;10169927;28;20703;-75
2023/06/13 19:43:54;;;;;;;9.55;5.43;;;;;24.80;100697.00;;;;10152472;28;20240;-76
2023/06/13 19:48:56;;;;;;;7.13;5.57;;;;;24.60;100706.00;;;;10172895;28;20848;-79
2023/06/13 19:54:00;;;;;;;11.82;6.47;;;;;24.30;100719.00;;;;10169361;28;20852;-78
2023/06/13 19:59:02;;;;;;;8.32;5.57;;;;;24.10;100728.00;;;;10164312;28;20348;-78
2023/06/13 20:04:04;;;;;;;8.10;5.38;;;;;23.80;100723.00;;;;10183540;28;20216;-77
2023/06/13 20:09:07;;;;;;;7.68;5.05;;;;;23.50;100732.00;;;;10193474;28;20261;-77
2023/06/13 20:14:10;;;;;;;8.27;5.68;;;;;23.30;100741.00;;;;10185431;28;20224;-77
2023/06/13 20:19:12;;;;;;;7.43;5.10;;;;;23.10;100748.00;;;;10161260;28;20261;-76
2023/06/13 20:24:14;;;;;;;6.55;5.38;;;;;22.90;100749.00;;;;10169247;28;20703;-76
2023/06/13 20:29:16;;;;;;;6.60;5.45;;;;;22.80;100763.00;;;;10185510;28;20206;-77
2023/06/13 20:34:18;;;;;;;12.63;5.10;;;;;22.70;100759.00;;;;10188800;28;20284;-75
2023/06/13 20:39:20;;;;;;;9.07;5.25;;;;;22.50;100766.00;;;;10188808;28;20531;-75
2023/06/13 20:44:22;;;;;;;9.07;5.28;;;;;22.40;100761.00;;;;10192210;28;20398;-74
2023/06/13 20:49:24;;;;;;;7.80;5.45;;;;;22.30;100768.00;;;;10186027;28;20206;-74
2023/06/13 20:54:27;;;;;;;9.48;5.72;;;;;22.10;100766.00;;;;10189255;28;22264;-76
2023/06/13 20:59:29;;;;;;;9.20;6.30;;;;;22.00;100765.00;;;;10179319;28;20326;-76
2023/06/13 21:04:31;;;;;;;6.57;5.88;;;;;21.80;100770.00;;;;10180319;28;20233;-75
2023/06/13 21:09:34;;;;;;;18.92;11.25;;;;;21.60;100777.00;;;;10182969;28;20327;-75
2023/06/13 21:14:36;;;;;;;20.10;12.20;;;;;21.40;100776.00;;;;10185163;28;20212;-74
2023/06/13 21:19:38;;;;;;;10.40;7.20;;;;;21.30;100782.00;;;;10172691;28;20634;-75
2023/06/13 21:24:41;;;;;;;9.80;5.10;;;;;21.20;100793.00;;;;10187864;28;20743;-75
2023/06/13 21:29:43;;;;;;;6.95;5.93;;;;;21.10;100789.00;;;;10185078;28;20208;-75
2023/06/13 21:34:45;;;;;;;11.77;5.75;;;;;20.90;100786.00;;;;10185349;28;20212;-75
2023/06/13 21:39:48;;;;;;;7.57;5.68;;;;;20.80;100787.00;;;;10192564;28;20944;-73
2023/06/13 21:44:50;;;;;;;9.02;5.25;;;;;20.60;100786.00;;;;10192759;28;20932;-77
2023/06/13 21:49:52;;;;;;;8.18;5.63;;;;;20.50;100785.00;;;;10197469;28;20216;-74
2023/06/13 21:54:54;;;;;;;12.82;5.95;;;;;20.40;100786.00;;;;10193317;28;20225;-74
2023/06/13 21:59:56;;;;;;;10.50;6.93;;;;;20.20;100783.00;;;;10191410;28;20212;-74
2023/06/13 22:04:58;;;;;;;10.50;5.95;;;;;20.00;100783.00;;;;10187307;28;20213;-74
2023/06/13 22:10:01;;;;;;;6.72;5.30;;;;;19.90;100782.00;;;;10193378;28;20338;-74
2023/06/13 22:15:03;;;;;;;14.65;5.45;;;;;19.80;100783.00;;;;10194468;28;20280;-73
2023/06/13 22:20:10;;;;;;;7.28;5.00;;;;;19.80;100799.00;;;;10188566;28;20292;-74
2023/06/13 22:25:13;;;;;;;7.22;6.00;;;;;19.70;100796.00;;;;10182614;28;20276;-74
2023/06/13 22:30:15;;;;;;;10.32;5.22;;;;;19.70;100799.00;;;;10168661;28;20348;-75
2023/06/13 22:35:19;;;;;;;6.90;5.32;;;;;19.50;100819.00;;;;10177642;28;20246;-75
2023/06/13 22:40:21;;;;;;;8.55;5.97;;;;;19.40;100808.00;;;;10173724;28;20202;-74
2023/06/13 22:45:24;;;;;;;8.20;5.68;;;;;19.20;100809.00;;;;10173699;28;20209;-78
2023/06/13 22:50:29;;;;;;;8.52;5.32;;;;;19.10;100816.00;;;;10160448;28;20267;-76
2023/06/13 22:55:31;;;;;;;7.50;5.03;;;;;18.90;100824.00;;;;10153663;28;20301;-76
2023/06/13 23:00:33;;;;;;;7.75;5.32;;;;;18.80;100816.00;;;;10157435;28;20221;-75
2023/06/13 23:05:35;;;;;;;7.93;6.03;;;;;18.70;100818.00;;;;10157371;28;20555;-78
2023/06/13 23:10:37;;;;;;;7.55;5.60;;;;;18.50;100827.00;;;;10160048;28;20303;-74
2023/06/13 23:15:41;;;;;;;6.10;5.50;;;;;18.40;100831.00;;;;10155503;28;20244;-76
2023/06/13 23:20:43;;;;;;;8.23;5.55;;;;;18.30;100820.00;;;;10173550;28;20256;-76
2023/06/13 23:25:45;;;;;;;10.40;6.55;;;;;18.30;100833.00;;;;10157750;28;20293;-74
2023/06/13 23:30:47;;;;;;;5.85;5.25;;;;;18.30;100829.00;;;;10170065;28;20236;-76
2023/06/13 23:35:50;;;;;;;11.30;5.78;;;;;18.30;100832.00;;;;10171851;28;20235;-74
2023/06/13 23:40:53;;;;;;;8.15;5.78;;;;;18.20;100833.00;;;;10173783;28;20245;-77
2023/06/13 23:45:56;;;;;;;6.65;5.65;;;;;18.10;100837.00;;;;10172729;28;20546;-76
2023/06/13 23:50:58;;;;;;;7.53;5.55;;;;;18.00;100834.00;;;;10176733;28;20243;-77
2023/06/13 23:56:01;;;;;;;6.25;5.65;;;;;17.90;100836.00;;;;10179791;28;21803;-76
